Time;durP1;ratioP1;P1;durP2;ratioP2;P2;SDS_P1;SDS_P2;PMS_P1;PMS_P2;Temp;Humidity;BMP_temperature;BMP_pressure;BME280_temperature;BME280_humidity;BME280_pressure;Samples;Min_cycle;Max_cycle;Signal;HPM_P1;HPM_P2
2022/04/04 00:00:53;;;;;;;4.93;3.63;;;;;;;2.39;100.00;101555.06;6157863;23;20040;-74
2022/04/04 00:03:22;;;;;;;3.42;3.10;;;;;;;2.40;100.00;101556.81;6145163;23;20017;-74
2022/04/04 00:05:51;;;;;;;4.88;3.22;;;;;;;2.42;100.00;101545.69;6157956;23;20048;-74
2022/04/04 00:08:19;;;;;;;4.40;3.28;;;;;;;2.43;100.00;101526.66;6146180;23;20021;-74
2022/04/04 00:10:48;;;;;;;8.55;3.85;;;;;;;2.44;100.00;101536.25;6143269;23;20441;-74
2022/04/04 00:13:17;;;;;;;3.83;3.20;;;;;;;2.44;100.00;101519.72;6159681;23;20020;-74
2022/04/04 00:15:46;;;;;;;7.28;4.03;;;;;;;2.47;100.00;101517.28;6156377;23;20036;-74
2022/04/04 00:18:15;;;;;;;4.10;3.40;;;;;;;2.47;100.00;101517.28;6160704;23;20013;-74
2022/04/04 00:20:44;;;;;;;5.35;3.53;;;;;;;2.47;100.00;101507.75;6119542;23;20128;-73
2022/04/04 00:23:13;;;;;;;4.30;3.97;;;;;;;2.47;100.00;101505.16;6115399;23;20021;-73
2022/04/04 00:25:46;;;;;;;4.07;3.53;;;;;;;2.48;100.00;101488.72;6179029;23;20299;-73
2022/04/04 00:28:15;;;;;;;6.85;3.45;;;;;;;2.50;100.00;101488.81;6162513;23;20447;-75
2022/04/04 00:30:43;;;;;;;3.55;2.92;;;;;;;2.49;100.00;101482.69;6157649;23;20028;-73
2022/04/04 00:33:13;;;;;;;3.83;3.38;;;;;;;2.51;100.00;101485.38;6157373;23;20017;-75
2022/04/04 00:35:42;;;;;;;4.22;3.00;;;;;;;2.50;100.00;101474.09;6100850;23;20021;-75
2022/04/04 00:38:11;;;;;;;6.15;3.50;;;;;;;2.53;100.00;101470.72;6123482;23;20312;-74
2022/04/04 00:40:41;;;;;;;6.57;3.67;;;;;;;2.54;100.00;101467.31;6155526;23;20047;-74
2022/04/04 00:43:09;;;;;;;5.55;3.30;;;;;;;2.54;100.00;101456.91;6157456;23;20013;-74
2022/04/04 00:45:44;;;;;;;8.00;3.78;;;;;;;2.51;100.00;101447.25;6133210;23;20124;-74
2022/04/04 00:48:12;;;;;;;4.07;3.63;;;;;;;2.51;100.00;101447.25;6188481;23;20017;-75
2022/04/04 00:50:41;;;;;;;3.42;3.13;;;;;;;2.50;100.00;101442.88;6152563;23;20016;-74
2022/04/04 00:53:11;;;;;;;4.55;3.33;;;;;;;2.50;100.00;101436.78;6148488;23;20013;-74
2022/04/04 00:55:40;;;;;;;5.90;3.42;;;;;;;2.48;100.00;101431.50;6157971;23;20242;-74
2022/04/04 00:58:09;;;;;;;4.60;3.78;;;;;;;2.48;100.00;101422.81;6133748;23;20024;-74
2022/04/04 01:00:38;;;;;;;4.32;3.45;;;;;;;2.48;100.00;101415.88;6182807;23;20048;-74
2022/04/04 01:03:07;;;;;;;5.30;3.55;;;;;;;2.49;100.00;101406.38;6127373;23;20028;-74
2022/04/04 01:05:35;;;;;;;5.40;3.15;;;;;;;2.51;100.00;101402.13;6153916;23;20021;-74
2022/04/04 01:08:04;;;;;;;3.85;3.55;;;;;;;2.51;100.00;101397.81;6093033;23;20021;-74
2022/04/04 01:10:32;;;;;;;4.82;4.30;;;;;;;2.53;100.00;101384.88;6157166;23;20020;-74
2022/04/04 01:13:02;;;;;;;4.35;3.63;;;;;;;2.53;100.00;101380.56;6150479;23;20159;-74
2022/04/04 01:15:32;;;;;;;4.70;4.22;;;;;;;2.57;100.00;101384.19;6160601;23;20021;-74
2022/04/04 01:18:06;;;;;;;8.02;4.53;;;;;;;2.57;100.00;101367.69;6152900;23;20231;-74
2022/04/04 01:20:35;;;;;;;4.38;3.70;;;;;;;2.58;100.00;101364.28;6161416;23;20019;-75
2022/04/04 01:23:05;;;;;;;6.88;5.00;;;;;;;2.56;100.00;101353.78;6115303;23;20488;-74
2022/04/04 01:25:37;;;;;;;5.80;4.35;;;;;;;2.57;100.00;101354.66;6187088;23;20017;-75
2022/04/04 01:28:06;;;;;;;5.20;4.70;;;;;;;2.59;100.00;101350.41;6157104;23;20025;-75
2022/04/04 01:30:34;;;;;;;6.00;4.53;;;;;;;2.61;100.00;101348.78;6187186;23;20020;-74
2022/04/04 01:33:02;;;;;;;6.72;4.47;;;;;;;2.62;100.00;101330.63;6151320;23;20028;-74
2022/04/04 01:35:32;;;;;;;6.53;5.07;;;;;;;2.64;100.00;101325.50;6160398;23;20024;-74
2022/04/04 01:38:01;;;;;;;7.95;5.35;;;;;;;2.65;100.00;101315.16;6137517;23;20589;-74
2022/04/04 01:40:30;;;;;;;7.43;4.60;;;;;;;2.67;100.00;101316.13;6132209;23;20021;-74
2022/04/04 01:42:58;;;;;;;10.52;5.50;;;;;;;2.69;100.00;101306.66;6131755;23;20028;-74
2022/04/04 01:48:14;;;;;;;7.43;5.70;;;;;;;2.71;100.00;101294.59;6133204;23;20021;-74
2022/04/04 01:50:44;;;;;;;8.55;6.22;;;;;;;2.73;100.00;101281.66;6134424;23;20021;-74
2022/04/04 01:53:27;;;;;;;9.93;6.38;;;;;;;2.74;100.00;101270.41;6149468;23;20021;-73
2022/04/04 01:56:05;;;;;;;10.02;7.47;;;;;;;2.77;100.00;101259.25;6118294;23;20024;-73
2022/04/04 01:58:34;;;;;;;11.27;7.60;;;;;;;2.79;100.00;101255.88;6157099;23;20025;-75
2022/04/04 02:01:13;;;;;;;12.77;7.93;;;;;;;2.82;100.00;101247.31;6160869;23;20017;-73
2022/04/04 02:03:43;;;;;;;11.35;7.32;;;;;;;2.82;100.00;101235.19;6184067;23;20271;-73
2022/04/04 02:06:13;;;;;;;11.73;8.52;;;;;;;2.85;100.00;101226.59;6155192;23;20029;-74
2022/04/04 02:08:42;;;;;;;11.90;8.27;;;;;;;2.86;100.00;101223.19;6109202;23;20025;-73
2022/04/04 02:11:13;;;;;;;8.73;7.85;;;;;;;2.88;100.00;101213.72;6133735;23;20017;-74
2022/04/04 02:13:42;;;;;;;15.35;9.05;;;;;;;2.88;100.00;101213.72;6134207;23;20306;-74
2022/04/04 02:16:11;;;;;;;16.35;9.93;;;;;;;2.91;100.00;101203.41;6184211;23;20021;-74
2022/04/04 02:18:40;;;;;;;10.85;8.70;;;;;;;2.91;100.00;101195.59;6158186;23;20016;-74
2022/04/04 02:21:09;;;;;;;13.32;9.80;;;;;;;2.92;100.00;101197.41;6154977;23;20016;-74
2022/04/04 02:23:38;;;;;;;13.82;9.10;;;;;;;2.93;100.00;101180.97;6179222;23;20359;-75
2022/04/04 02:26:07;;;;;;;12.27;9.25;;;;;;;2.95;100.00;101176.69;6146574;23;20025;-74
2022/04/04 02:28:35;;;;;;;11.75;9.20;;;;;;;2.95;100.00;101174.09;6182742;23;20229;-74
2022/04/04 02:31:04;;;;;;;12.20;9.13;;;;;;;2.98;100.00;101158.56;6159759;23;20036;-74
2022/04/04 02:33:33;;;;;;;12.07;9.48;;;;;;;3.00;100.00;101166.47;6156454;23;20145;-74
2022/04/04 02:36:02;;;;;;;11.80;9.07;;;;;;;3.02;100.00;101156.97;6157094;23;20032;-74
2022/04/04 02:38:30;;;;;;;11.70;9.77;;;;;;;3.03;100.00;101146.63;6152288;23;20051;-74
2022/04/04 02:41:01;;;;;;;13.25;9.70;;;;;;;3.06;100.00;101143.25;6173821;23;20020;-74
2022/04/04 02:43:29;;;;;;;14.82;9.85;;;;;;;3.07;100.00;101143.31;6129920;23;20147;-74
2022/04/04 02:45:58;;;;;;;12.20;9.57;;;;;;;3.10;100.00;101129.50;6187132;23;20021;-74
2022/04/04 02:48:26;;;;;;;17.13;11.18;;;;;;;3.09;100.00;101131.25;6130385;23;20482;-74
2022/04/04 02:50:55;;;;;;;12.95;10.05;;;;;;;3.12;100.00;101112.25;6129175;23;20470;-74
2022/04/04 02:53:23;;;;;;;13.85;11.43;;;;;;;3.15;100.00;101111.47;6130647;23;20454;-74
2022/04/04 02:58:42;;;;;;;12.45;10.00;;;;;;;3.16;100.00;101090.72;6124830;23;20028;-74
2022/04/04 03:01:12;;;;;;;14.15;8.65;;;;;;;3.19;100.00;101077.78;6134751;23;20032;-74
2022/04/04 03:03:41;;;;;;;12.93;10.32;;;;;;;3.20;100.00;101073.47;6159455;23;20498;-74
2022/04/04 03:06:10;;;;;;;18.33;11.30;;;;;;;3.23;100.00;101065.75;6135029;23;20028;-74
2022/04/04 03:08:38;;;;;;;13.23;10.98;;;;;;;3.24;100.00;101064.94;6131259;23;20302;-74
2022/04/04 03:11:07;;;;;;;12.77;11.18;;;;;;;3.25;100.00;101058.88;6155076;23;20017;-74
2022/04/04 03:13:36;;;;;;;14.07;11.88;;;;;;;3.27;100.00;101046.81;6167662;23;20048;-74
2022/04/04 03:16:05;;;;;;;13.85;11.10;;;;;;;3.29;100.00;101043.44;6134631;23;20017;-74
2022/04/04 03:18:35;;;;;;;15.98;10.98;;;;;;;3.33;100.00;101031.41;6155742;23;20024;-74
2022/04/04 03:21:04;;;;;;;12.93;11.38;;;;;;;3.34;100.00;101033.16;6135175;23;20017;-74
2022/04/04 03:23:34;;;;;;;17.77;11.57;;;;;;;3.37;100.00;101029.81;6151419;23;20230;-74
2022/04/04 03:26:03;;;;;;;12.77;10.68;;;;;;;3.38;100.00;101029.84;6160261;23;20013;-75
2022/04/04 03:28:31;;;;;;;13.27;11.80;;;;;;;3.41;100.00;101024.75;6139324;23;20223;-74
2022/04/04 03:31:00;;;;;;;14.60;11.57;;;;;;;3.45;100.00;101015.31;6187072;23;20024;-74
2022/04/04 03:33:28;;;;;;;16.77;12.30;;;;;;;3.46;100.00;101004.97;6105798;23;20020;-74
2022/04/04 03:35:58;;;;;;;16.00;11.40;;;;;;;3.49;100.00;100999.84;6135043;23;20025;-74
2022/04/04 03:38:27;;;;;;;18.47;13.40;;;;;;;3.49;100.00;100992.03;6102224;23;20028;-74
2022/04/04 03:40:55;;;;;;;16.27;12.25;;;;;;;3.53;100.00;100981.72;6159280;23;20354;-74
2022/04/04 03:43:25;;;;;;;18.58;12.20;;;;;;;3.53;100.00;100969.56;6089563;23;20454;-74
2022/04/04 03:45:53;;;;;;;15.52;13.00;;;;;;;3.51;100.00;100972.09;6185398;23;20021;-74
2022/04/04 03:48:21;;;;;;;15.38;12.25;;;;;;;3.54;100.00;100952.22;6154941;23;20020;-75
2022/04/04 03:50:54;;;;;;;15.25;11.38;;;;;;;3.55;100.00;100951.38;6187012;23;20025;-74
2022/04/04 03:53:23;;;;;;;18.27;11.98;;;;;;;3.55;100.00;100939.22;6150712;23;20039;-74
2022/04/04 03:55:53;;;;;;;14.55;12.02;;;;;;;3.56;100.00;100930.59;6158869;23;20358;-74
2022/04/04 03:58:22;;;;;;;19.80;13.27;;;;;;;3.58;100.00;100925.44;6177082;23;20447;-74
2022/04/04 04:00:50;;;;;;;14.75;12.63;;;;;;;3.58;100.00;100923.72;6141661;23;20028;-74
2022/04/04 04:03:19;;;;;;;19.05;13.82;;;;;;;3.62;100.00;100920.34;6095438;23;20446;-74
2022/04/04 04:05:48;;;;;;;18.60;13.95;;;;;;;3.62;100.00;100902.13;6133844;23;20032;-74
2022/04/04 04:08:16;;;;;;;18.98;12.90;;;;;;;3.64;100.00;100900.44;6183271;23;20359;-74
2022/04/04 04:10:45;;;;;;;18.13;12.65;;;;;;;3.64;100.00;100883.94;6180479;23;20350;-74
2022/04/04 04:13:13;;;;;;;19.02;13.95;;;;;;;3.64;100.00;100876.13;6179857;23;20380;-74
2022/04/04 04:15:42;;;;;;;18.42;13.18;;;;;;;3.65;100.00;100870.97;6086777;23;20493;-74
2022/04/04 04:18:10;;;;;;;18.05;13.73;;;;;;;3.64;100.00;100861.34;6125721;23;20017;-74
2022/04/04 04:20:38;;;;;;;21.33;13.35;;;;;;;3.64;100.00;100848.31;6133485;23;20120;-74
2022/04/04 04:23:08;;;;;;;17.40;12.27;;;;;;;3.62;100.00;100844.78;6134982;23;20017;-74
2022/04/04 04:25:37;;;;;;;21.27;14.80;;;;;;;3.64;100.00;100839.63;6179402;23;20214;-74
2022/04/04 04:28:06;;;;;;;23.38;14.75;;;;;;;3.64;100.00;100837.03;6160026;23;20021;-75
2022/04/04 04:30:35;;;;;;;27.13;13.80;;;;;;;3.65;100.00;100836.19;6115375;23;20836;-74
2022/04/04 04:33:04;;;;;;;23.27;14.13;;;;;;;3.65;100.00;100825.78;6159272;23;20473;-73
2022/04/04 04:35:32;;;;;;;21.67;15.27;;;;;;;3.65;100.00;100820.56;6181928;23;20043;-74
2022/04/04 04:38:01;;;;;;;20.40;14.15;;;;;;;3.64;100.00;100818.78;6101865;23;20477;-75
2022/04/04 04:40:29;;;;;;;26.75;15.45;;;;;;;3.64;100.00;100819.66;6126649;23;20051;-75
2022/04/04 04:42:58;;;;;;;24.50;15.63;;;;;;;3.64;100.00;100808.34;6124841;23;20021;-74
2022/04/04 04:45:28;;;;;;;24.58;16.23;;;;;;;3.63;100.00;100801.38;6137006;23;20024;-75
2022/04/04 04:47:57;;;;;;;26.88;18.25;;;;;;;3.64;100.00;100803.16;6158475;23;20029;-75
2022/04/04 04:50:26;;;;;;;19.00;14.25;;;;;;;3.64;100.00;100796.19;6179482;23;20051;-75
2022/04/04 04:52:56;;;;;;;20.83;16.33;;;;;;;3.63;100.00;100786.63;6150164;23;20017;-74
2022/04/04 04:55:25;;;;;;;23.08;16.55;;;;;;;3.63;100.00;100778.81;6125766;23;20219;-74
2022/04/04 04:57:54;;;;;;;25.10;17.00;;;;;;;3.63;100.00;100760.56;6184179;23;20032;-74
2022/04/04 05:00:25;;;;;;;30.75;16.58;;;;;;;3.63;100.00;100759.66;6137252;23;20025;-76
2022/04/04 05:05:41;;;;;;;20.30;14.10;;;;;;;3.61;100.00;100732.69;6161563;23;20238;-74
2022/04/04 05:08:10;;;;;;;22.80;16.27;;;;;;;3.60;100.00;100728.31;6160483;23;20021;-74
2022/04/04 05:10:38;;;;;;;21.10;16.08;;;;;;;3.60;100.00;100723.13;6144614;23;20127;-75
2022/04/04 05:13:07;;;;;;;25.38;16.08;;;;;;;3.60;100.00;100720.50;6130708;23;20025;-74
2022/04/04 05:15:35;;;;;;;23.48;15.35;;;;;;;3.59;100.00;100717.03;6128134;23;20151;-74
2022/04/04 05:18:04;;;;;;;22.60;15.75;;;;;;;3.61;100.00;100710.13;6119598;23;20024;-74
2022/04/04 05:20:32;;;;;;;20.85;15.05;;;;;;;3.59;100.00;100717.03;6183205;23;20021;-75
2022/04/04 05:23:01;;;;;;;23.67;16.08;;;;;;;3.60;100.00;100715.31;6136489;23;20021;-75
2022/04/04 05:25:30;;;;;;;24.70;17.05;;;;;;;3.59;100.00;100700.50;6131160;23;20155;-75
2022/04/04 05:27:59;;;;;;;22.13;16.83;;;;;;;3.59;100.00;100704.00;6156453;23;20021;-74
2022/04/04 05:30:27;;;;;;;23.15;16.63;;;;;;;3.60;100.00;100702.28;6097994;23;20227;-75
2022/04/04 05:32:55;;;;;;;25.83;16.88;;;;;;;3.60;100.00;100691.84;6122625;23;20012;-75
2022/04/04 05:35:24;;;;;;;24.42;15.40;;;;;;;3.60;100.00;100689.25;6115997;23;20018;-75
2022/04/04 05:37:55;;;;;;;21.17;14.57;;;;;;;3.58;100.00;100678.78;6127185;23;20025;-75
2022/04/04 05:40:27;;;;;;;25.48;17.67;;;;;;;3.58;100.00;100654.44;6175454;23;20051;-75
2022/04/04 05:42:55;;;;;;;27.02;17.00;;;;;;;3.57;100.00;100670.91;6150429;23;20025;-75
2022/04/04 05:45:24;;;;;;;24.15;18.15;;;;;;;3.59;100.00;100671.81;6128839;23;20020;-74
2022/04/04 05:47:52;;;;;;;27.10;17.60;;;;;;;3.58;100.00;100655.31;6120077;23;20331;-74
2022/04/04 05:50:20;;;;;;;24.52;14.32;;;;;;;3.59;100.00;100648.38;6132822;23;20362;-74
2022/04/04 05:52:49;;;;;;;19.73;15.38;;;;;;;3.57;100.00;100661.34;6157551;23;20017;-74
2022/04/04 05:55:18;;;;;;;21.83;13.77;;;;;;;3.59;100.00;100648.38;6153954;23;20454;-74
2022/04/04 05:57:47;;;;;;;17.50;13.52;;;;;;;3.59;100.00;100646.69;6125260;23;20167;-74
2022/04/04 06:00:17;;;;;;;23.33;14.65;;;;;;;3.62;100.00;100645.88;6101363;23;20032;-76
2022/04/04 06:02:47;;;;;;;24.58;15.10;;;;;;;3.64;100.00;100649.41;6145720;23;20498;-74
2022/04/04 06:05:15;;;;;;;16.77;11.60;;;;;;;3.63;100.00;100634.59;6100668;23;20327;-74
2022/04/04 06:07:44;;;;;;;12.07;8.88;;;;;;;3.63;100.00;100626.78;6157501;23;20132;-76
2022/04/04 06:10:15;;;;;;;13.50;8.63;;;;;;;3.66;100.00;100626.88;6125215;23;20025;-76
2022/04/04 06:12:44;;;;;;;11.88;8.13;;;;;;;3.66;100.00;100625.13;6115553;23;20481;-74
2022/04/04 06:15:15;;;;;;;10.15;8.27;;;;;;;3.68;100.00;100607.81;6181676;23;20342;-74
2022/04/04 06:17:45;;;;;;;10.48;7.97;;;;;;;3.67;100.00;100624.31;6107247;23;20299;-74
2022/04/04 06:20:14;;;;;;;9.45;7.88;;;;;;;3.68;100.00;100615.63;6186438;23;20336;-74
2022/04/04 06:22:45;;;;;;;10.95;7.07;;;;;;;3.67;100.00;100607.81;6158457;23;20238;-75
2022/04/04 06:25:14;;;;;;;7.32;6.32;;;;;;;3.67;100.00;100595.66;6152790;23;20009;-74
2022/04/04 06:27:44;;;;;;;6.05;4.88;;;;;;;3.64;100.00;100595.53;6102874;23;20124;-74
2022/04/04 06:30:13;;;;;;;7.13;5.27;;;;;;;3.63;100.00;100592.91;6175439;23;20025;-74
2022/04/04 06:32:43;;;;;;;8.93;6.13;;;;;;;3.62;100.00;100580.72;6121593;23;20026;-74
2022/04/04 06:35:16;;;;;;;9.07;5.78;;;;;;;3.57;100.00;100574.50;6159011;23;20013;-75
2022/04/04 06:37:46;;;;;;;6.38;4.43;;;;;;;3.55;100.00;100560.56;6150254;23;20035;-75
2022/04/04 06:40:14;;;;;;;10.15;6.30;;;;;;;3.53;100.00;100570.91;6142727;23;20017;-75
2022/04/04 06:42:44;;;;;;;12.98;7.43;;;;;;;3.53;100.00;100555.28;6158897;23;20399;-74
2022/04/04 06:45:13;;;;;;;8.63;6.75;;;;;;;3.54;100.00;100546.66;6164533;23;20021;-75
2022/04/04 06:47:41;;;;;;;6.78;5.13;;;;;;;3.54;100.00;100561.41;6150027;23;20021;-74
2022/04/04 06:50:13;;;;;;;8.77;4.88;;;;;;;3.50;100.00;100537.00;6130416;23;20402;-74
2022/04/04 06:52:42;;;;;;;7.70;4.03;;;;;;;3.47;100.00;100542.97;6160720;23;20028;-75
2022/04/04 06:55:31;;;;;;;9.63;5.35;;;;;;;3.44;100.00;100526.38;6154562;23;20017;-74
2022/04/04 06:58:00;;;;;;;9.75;3.75;;;;;;;3.45;100.00;100531.63;6107249;23;20021;-76
2022/04/04 07:00:31;;;;;;;6.50;5.30;;;;;;;3.45;100.00;100521.22;6103648;23;20155;-75
2022/04/04 07:03:00;;;;;;;7.88;4.93;;;;;;;3.46;100.00;100522.09;6151301;23;20021;-74
2022/04/04 07:05:31;;;;;;;4.88;4.28;;;;;;;3.45;100.00;100499.50;6110146;23;20036;-74
2022/04/04 07:07:59;;;;;;;6.90;4.53;;;;;;;3.45;100.00;100500.38;6157635;23;20363;-74
2022/04/04 07:10:28;;;;;;;5.65;3.65;;;;;;;3.46;100.00;100496.03;6157451;23;20222;-74
2022/04/04 07:12:56;;;;;;;5.40;4.53;;;;;;;3.48;100.00;100497.00;6135237;23;20028;-74
2022/04/04 07:15:25;;;;;;;6.70;4.10;;;;;;;3.49;100.00;100502.22;6114639;23;20620;-75
2022/04/04 07:17:53;;;;;;;4.90;3.97;;;;;;;3.50;100.00;100490.97;6130865;23;20020;-76
2022/04/04 07:20:22;;;;;;;8.57;5.30;;;;;;;3.51;100.00;100482.28;6117890;23;20294;-74
2022/04/04 07:22:51;;;;;;;5.68;4.50;;;;;;;3.53;100.00;100476.25;6160316;23;20021;-74
2022/04/04 07:25:21;;;;;;;8.27;5.07;;;;;;;3.54;100.00;100476.31;6154810;23;20047;-77
2022/04/04 07:27:51;;;;;;;6.90;5.80;;;;;;;3.55;100.00;100465.03;6175291;23;20082;-76
2022/04/04 07:30:20;;;;;;;8.75;5.53;;;;;;;3.58;100.00;100459.03;6122616;23;20020;-75
2022/04/04 07:32:50;;;;;;;16.48;5.75;;;;;;;3.60;100.00;100444.31;6113883;23;20021;-76
2022/04/04 07:35:20;;;;;;;9.07;6.22;;;;;;;3.63;100.00;100452.19;6093480;23;20123;-74
2022/04/04 07:37:50;;;;;;;12.13;6.67;;;;;;;3.66;100.00;100437.50;6101419;23;20025;-75
2022/04/04 07:40:20;;;;;;;10.07;5.72;;;;;;;3.68;100.00;100429.75;6149884;23;20206;-75
2022/04/04 07:42:52;;;;;;;6.70;5.65;;;;;;;3.72;100.00;100426.34;6156748;23;20386;-75
2022/04/04 07:45:21;;;;;;;8.45;5.28;;;;;;;3.75;100.00;100425.56;6121397;23;20013;-75
2022/04/04 07:47:50;;;;;;;9.73;6.63;;;;;;;3.79;100.00;100419.59;6102397;23;20032;-75
2022/04/04 07:50:19;;;;;;;8.70;5.72;;;;;;;3.81;100.00;100404.84;6102078;23;20029;-74
2022/04/04 07:52:48;;;;;;;11.88;6.45;;;;;;;3.85;100.00;100397.13;6143528;23;20250;-74
2022/04/04 07:55:17;;;;;;;10.07;6.53;;;;;;;3.88;100.00;100393.72;6147932;23;20351;-74
2022/04/04 07:57:46;;;;;;;10.52;7.20;;;;;;;3.93;100.00;100393.81;6127680;23;20025;-74
2022/04/04 08:00:17;;;;;;;13.30;7.07;;;;;;;3.95;100.00;100379.09;6182805;23;20362;-77
2022/04/04 08:02:46;;;;;;;12.30;5.93;;;;;;;3.98;100.00;100384.38;6172305;23;20260;-76
2022/04/04 08:05:16;;;;;;;10.15;7.80;;;;;;;4.00;100.00;100380.97;6161864;23;20485;-74
2022/04/04 08:07:47;;;;;;;16.63;7.43;;;;;;;4.03;100.00;100372.34;6152442;23;20036;-75
2022/04/04 08:10:17;;;;;;;9.38;7.57;;;;;;;4.05;100.00;100366.31;6115155;23;20025;-76
2022/04/04 08:12:46;;;;;;;13.43;8.45;;;;;;;4.08;100.00;100371.59;6179134;23;20151;-74
2022/04/04 08:15:14;;;;;;;11.45;7.90;;;;;;;4.10;100.00;100363.78;6097873;23;20029;-75
2022/04/04 08:17:43;;;;;;;15.02;9.30;;;;;;;4.12;100.00;100348.19;6122583;23;20147;-75
2022/04/04 08:20:12;;;;;;;11.05;8.07;;;;;;;4.15;100.00;100345.66;6098935;23;20017;-75
2022/04/04 08:22:43;;;;;;;11.23;7.43;;;;;;;4.14;100.00;100331.75;6116283;23;20472;-75
2022/04/04 08:25:14;;;;;;;10.95;7.82;;;;;;;4.18;100.00;100328.34;6148478;23;20040;-75
2022/04/04 08:27:43;;;;;;;9.40;8.15;;;;;;;4.20;100.00;100329.25;6150814;23;20410;-75
2022/04/04 08:30:14;;;;;;;10.98;9.13;;;;;;;4.23;100.00;100316.25;6156063;23;20028;-75
2022/04/04 08:32:44;;;;;;;11.20;7.97;;;;;;;4.27;100.00;100314.59;6117363;23;20021;-74
2022/04/04 08:35:14;;;;;;;8.23;7.00;;;;;;;4.30;100.00;100319.88;6089603;23;20029;-75
2022/04/04 08:37:45;;;;;;;8.35;7.32;;;;;;;4.34;100.00;100307.78;6167091;23;20637;-75
2022/04/04 08:40:18;;;;;;;12.45;7.10;;;;;;;4.37;100.00;100303.50;6149326;23;20063;-75
2022/04/04 08:42:47;;;;;;;10.13;7.38;;;;;;;4.42;100.00;100298.38;6155741;23;20230;-75
2022/04/04 08:45:16;;;;;;;7.03;5.45;;;;;;;4.44;100.00;100299.28;6108889;23;20337;-75
2022/04/04 08:47:45;;;;;;;8.45;6.88;;;;;;;4.48;100.00;100286.34;6093265;23;20216;-76
2022/04/04 08:50:14;;;;;;;8.80;4.88;;;;;;;4.52;100.00;100282.06;6147578;23;20457;-75
2022/04/04 08:52:43;;;;;;;7.55;5.55;;;;;;;4.56;100.00;100281.25;6132132;23;20216;-75
2022/04/04 08:55:13;;;;;;;5.28;4.70;;;;;;;4.59;100.00;100269.97;6133251;23;20021;-76
2022/04/04 08:57:42;;;;;;;4.72;4.22;;;;;;;4.65;100.00;100273.59;6138333;23;20238;-75
2022/04/04 09:00:12;;;;;;;4.03;3.65;;;;;;;4.68;100.00;100284.06;6147719;23;20032;-76
2022/04/04 09:03:03;;;;;;;5.32;4.60;;;;;;;4.71;100.00;100251.94;6130511;23;20029;-76
2022/04/04 09:05:34;;;;;;;6.10;3.80;;;;;;;4.73;100.00;100260.69;6164952;23;20459;-80
2022/04/04 09:08:07;;;;;;;4.35;3.25;;;;;;;4.76;100.00;100249.41;6163195;23;20017;-78
2022/04/04 09:10:37;;;;;;;3.53;3.22;;;;;;;4.77;100.00;100240.72;6104274;23;20017;-80
2022/04/04 09:13:18;;;;;;;3.20;2.95;;;;;;;4.80;100.00;100248.59;6114448;23;20480;-79
2022/04/04 09:16:06;;;;;;;;;;;;;;;4.82;100.00;100245.19;6138524;23;20016;-79
2022/04/04 09:18:39;;;;;;;4.18;2.55;;;;;;;4.85;100.00;100239.13;6160527;23;20381;-80
2022/04/04 09:21:11;;;;;;;7.45;3.10;;;;;;;4.89;100.00;100214.81;6181735;23;20025;-79
2022/04/04 09:23:42;;;;;;;3.72;3.40;;;;;;;4.91;100.00;100214.84;6145203;23;20230;-79
2022/04/04 09:26:26;;;;;;;3.17;2.90;;;;;;;4.94;100.00;100222.75;6182618;23;20025;-79
2022/04/04 09:28:59;;;;;;;3.33;2.92;;;;;;;4.96;100.00;100211.44;6104143;23;20396;-78
2022/04/04 09:31:28;;;;;;;3.05;2.85;;;;;;;4.99;100.00;100224.56;6159371;23;20032;-82
2022/04/04 09:34:02;;;;;;;3.17;2.90;;;;;;;5.03;100.00;100208.09;6105284;23;20036;-79
2022/04/04 09:36:32;;;;;;;4.70;3.38;;;;;;;5.07;100.00;100195.97;6144903;23;20028;-78
2022/04/04 09:39:08;;;;;;;5.85;3.80;;;;;;;5.08;100.00;100201.22;6128445;23;20036;-78
2022/04/04 09:41:40;;;;;;;3.25;2.95;;;;;;;5.13;100.00;100184.72;6152461;23;20021;-79
2022/04/04 09:44:11;;;;;;;2.95;2.60;;;;;;;5.15;100.00;100181.28;6138194;23;20063;-78
2022/04/04 09:46:42;;;;;;;4.05;2.58;;;;;;;5.19;100.00;100169.13;6134437;23;20644;-79
2022/04/04 09:49:14;;;;;;;2.88;2.50;;;;;;;5.21;100.00;100170.91;6163400;23;20025;-80
2022/04/04 09:51:50;;;;;;;2.67;2.38;;;;;;;5.24;100.00;100167.47;6156031;23;20051;-79
2022/04/04 09:54:23;;;;;;;4.90;2.85;;;;;;;5.26;100.00;100164.00;6146406;23;20021;-79
2022/04/04 09:57:09;;;;;;;5.53;3.45;;;;;;;5.28;100.00;100157.06;6161764;23;20031;-80
2022/04/04 09:59:41;;;;;;;4.47;2.60;;;;;;;5.30;100.00;100149.25;6151780;23;20139;-79
2022/04/04 10:02:12;;;;;;;6.07;3.17;;;;;;;5.35;100.00;100154.53;6159281;23;20025;-80
2022/04/04 10:04:44;;;;;;;5.18;2.85;;;;;;;5.36;100.00;100154.56;6131341;23;20029;-78
2022/04/04 10:07:17;;;;;;;3.42;3.22;;;;;;;5.37;100.00;100153.72;6131534;23;20024;-78
2022/04/04 10:09:47;;;;;;;4.03;2.33;;;;;;;5.37;100.00;100145.88;6154308;23;20636;-79
2022/04/04 10:12:16;;;;;;;5.43;2.75;;;;;;;5.40;100.00;100143.28;6129613;23;20025;-79
2022/04/04 10:14:45;;;;;;;3.33;3.03;;;;;;;5.41;100.00;100152.91;6100451;23;20029;-79
2022/04/04 10:17:17;;;;;;;5.18;2.67;;;;;;;5.45;100.00;100159.91;6162472;23;20029;-79
2022/04/04 10:19:47;;;;;;;4.05;2.95;;;;;;;5.47;100.00;100145.13;6103360;23;20036;-79
2022/04/04 10:22:16;;;;;;;4.13;2.88;;;;;;;5.53;100.00;100133.00;6157978;23;20032;-78
2022/04/04 10:24:45;;;;;;;3.28;2.03;;;;;;;5.55;100.00;100123.44;6091241;23;20036;-79
2022/04/04 10:27:19;;;;;;;5.32;2.65;;;;;;;5.58;100.00;100128.72;6164715;23;20024;-79
2022/04/04 10:29:48;;;;;;;4.03;2.92;;;;;;;5.58;100.00;100118.25;6184430;23;20021;-79
2022/04/04 10:32:24;;;;;;;4.38;2.85;;;;;;;5.57;100.00;100113.88;6107180;23;20477;-79
2022/04/04 10:34:55;;;;;;;3.00;2.80;;;;;;;5.59;100.00;100107.81;6162796;23;20036;-80
2022/04/04 10:37:29;;;;;;;3.58;2.78;;;;;;;5.60;100.00;100101.72;6154918;23;20028;-78
2022/04/04 10:40:17;;;;;;;2.97;2.78;;;;;;;5.60;100.00;100100.84;6117094;23;20025;-77
2022/04/04 10:42:48;;;;;;;3.47;2.42;;;;;;;5.61;100.00;100090.44;6121887;23;20025;-78
2022/04/04 10:45:18;;;;;;;3.35;2.40;;;;;;;5.62;100.00;100109.59;6145250;23;20025;-76
2022/04/04 10:47:47;;;;;;;3.65;2.28;;;;;;;5.63;100.00;100093.94;6126537;23;20028;-77
2022/04/04 10:50:35;;;;;;;3.67;2.42;;;;;;;5.65;100.00;100094.81;6101968;23;20032;-78
2022/04/04 10:53:04;;;;;;;3.20;2.25;;;;;;;5.68;100.00;100083.50;6128024;23;20363;-76
2022/04/04 10:55:36;;;;;;;4.18;2.25;;;;;;;5.73;100.00;100097.53;6162310;23;20032;-77
2022/04/04 10:58:16;;;;;;;1.85;1.75;;;;;;;5.77;100.00;100062.69;6181437;23;20343;-78
2022/04/04 11:01:14;;;;;;;2.58;2.35;;;;;;;5.80;100.00;100077.53;6145360;23;20029;-77
2022/04/04 11:03:52;;;;;;;2.78;2.15;;;;;;;5.82;100.00;100084.56;6116314;23;20451;-77
2022/04/04 11:09:46;;;;;;;3.85;2.30;;;;;;;5.89;100.00;100074.16;6141606;23;20530;-77
2022/04/04 11:12:15;;;;;;;3.45;2.35;;;;;;;5.92;100.00;100067.22;6128552;23;20016;-78
2022/04/04 11:14:54;;;;;;;2.55;1.75;;;;;;;5.93;100.00;100068.06;6132707;23;20036;-76
2022/04/04 11:17:30;;;;;;;3.03;2.22;;;;;;;5.92;100.00;100058.50;6168631;23;20147;-76
2022/04/04 11:20:11;;;;;;;2.30;2.10;;;;;;;5.93;100.00;100068.94;6140865;23;20028;-76
2022/04/04 11:22:51;;;;;;;2.28;1.95;;;;;;;5.95;100.00;100061.13;6144445;23;20021;-77
2022/04/04 11:25:22;;;;;;;1.95;1.80;;;;;;;5.97;100.00;100064.66;6168668;23;20043;-77
2022/04/04 11:27:50;;;;;;;1.45;1.35;;;;;;;5.97;100.00;100051.56;6138684;23;20478;-77
2022/04/04 11:30:21;;;;;;;2.08;1.90;;;;;;;5.99;100.00;100068.16;6118127;23;20021;-76
2022/04/04 11:32:53;;;;;;;1.52;1.42;;;;;;;6.00;100.00;100039.41;6154035;23;20025;-77
2022/04/04 11:35:27;;;;;;;1.70;1.60;;;;;;;6.04;100.00;100048.16;6144444;23;20368;-76
2022/04/04 11:37:56;;;;;;;1.42;1.23;;;;;;;6.05;100.00;100040.34;6153229;23;20021;-77
2022/04/04 11:40:34;;;;;;;2.17;1.40;;;;;;;6.10;100.00;100034.25;6133233;23;20299;-76
2022/04/04 11:43:09;;;;;;;3.75;1.55;;;;;;;6.13;100.00;100050.00;6130612;23;20024;-77
2022/04/04 11:45:40;;;;;;;1.27;1.17;;;;;;;6.15;100.00;100041.28;6152914;23;20040;-78